Detroit, Michigan
Traffic Map
Current Weather Conditions
Detroit, Michigan
Broken Clouds
Broken Clouds
59°
Feels Like: 59°
Wind Chill: 59° Ceiling: 36000
Heat Index: 59° Visibility: 12mi
Dew Point: 25° Wind: 14mph
Humidity: 27% Direction: 70° (ENE)
Pressure: 30.32in Gusts: 0mph
Raw Report DataCYQG 222200Z 07012KT 12SM BKN360 15/M04 A3032 RMK CS7 CONTRAILS SLP273
Traffic Incident Summary
Active as of:
Severity:
Category:
InformationThere was an issue retrieving the traffic information for this location. Please try a different location or try again shortly.
Advertisements